Time;durP1;ratioP1;P1;durP2;ratioP2;P2;SDS_P1;SDS_P2;PMS_P1;PMS_P2;Temp;Humidity;BMP_temperature;BMP_pressure;BME280_temperature;BME280_humidity;BME280_pressure;Samples;Min_cycle;Max_cycle;Signal;HPM_P1;HPM_P2
2022/02/11 00:00:59;;;;;;;17.40;5.75;;;4.00;99.90;;;;;;5036934;28;20037;-54
2022/02/11 00:06:56;;;;;;;14.57;5.18;;;4.00;99.90;;;;;;5035145;28;20040;-55
2022/02/11 00:08:55;;;;;;;21.23;5.55;;;4.00;99.90;;;;;;5035784;28;20115;-55
2022/02/11 00:11:33;;;;;;;12.55;5.40;;;4.00;99.90;;;;;;5035468;28;20981;-55
2022/02/11 00:13:59;;;;;;;8.88;4.97;;;4.00;99.90;;;;;;5035830;28;20022;-55
2022/02/11 00:16:25;;;;;;;15.48;4.72;;;4.00;99.90;;;;;;5034630;28;20029;-55
2022/02/11 00:18:51;;;;;;;11.23;4.72;;;4.00;99.90;;;;;;5035305;28;20099;-55
2022/02/11 00:21:19;;;;;;;14.85;4.45;;;4.00;99.90;;;;;;5035111;28;20567;-55
2022/02/11 00:23:45;;;;;;;16.20;4.88;;;4.00;99.90;;;;;;5034339;28;20033;-55
2022/02/11 00:26:12;;;;;;;11.15;4.55;;;4.00;99.90;;;;;;5035467;28;20034;-55
2022/02/11 00:33:55;;;;;;;13.98;4.72;;;4.00;99.90;;;;;;5035266;28;20075;-55
2022/02/11 00:36:26;;;;;;;14.18;4.57;;;4.00;99.90;;;;;;5035127;28;20025;-55
2022/02/11 00:43:04;;;;;;;12.50;4.30;;;4.00;99.90;;;;;;5033932;28;20021;-55
2022/02/11 01:05:42;;;;;;;14.20;4.03;;;3.90;99.90;;;;;;5034748;28;20022;-55
2022/02/11 01:08:08;;;;;;;17.23;4.57;;;3.80;99.90;;;;;;5034523;28;20022;-55
2022/02/11 01:10:34;;;;;;;16.52;4.25;;;3.80;99.90;;;;;;5032923;28;20901;-55
2022/02/11 01:13:00;;;;;;;13.35;3.83;;;3.80;99.90;;;;;;5034541;28;20483;-55
2022/02/11 01:15:27;;;;;;;14.60;4.40;;;3.80;99.90;;;;;;5032352;28;20088;-54
2022/02/11 01:17:57;;;;;;;15.35;4.18;;;3.80;99.90;;;;;;5034568;28;20395;-54
2022/02/11 01:28:34;;;;;;;13.00;3.90;;;3.70;99.90;;;;;;5034021;28;20127;-54
2022/02/11 01:43:06;;;;;;;13.23;4.03;;;3.70;99.90;;;;;;5033385;28;20036;-55
2022/02/11 01:47:15;;;;;;;14.52;4.18;;;3.80;99.90;;;;;;5033867;28;20022;-55
2022/02/11 01:55:06;;;;;;;14.35;3.92;;;4.20;99.90;;;;;;5034076;28;20031;-55
2022/02/11 02:09:05;;;;;;;12.93;4.15;;;4.40;99.90;;;;;;5034168;28;20095;-55
2022/02/11 02:17:33;;;;;;;14.32;3.45;;;4.50;99.90;;;;;;5033871;28;20021;-55
2022/02/11 02:57:15;;;;;;;19.08;4.38;;;4.30;99.90;;;;;;5032794;28;20036;-55
2022/02/11 03:14:35;;;;;;;13.70;3.83;;;4.30;99.90;;;;;;5033039;28;20109;-55
2022/02/11 03:34:52;;;;;;;21.58;4.03;;;4.20;99.90;;;;;;5032406;28;20017;-55
2022/02/11 03:48:54;;;;;;;20.13;4.25;;;4.50;99.90;;;;;;5031874;28;20063;-55
2022/02/11 03:51:56;;;;;;;17.60;4.38;;;4.50;99.90;;;;;;5032363;28;20763;-55
2022/02/11 04:56:21;;;;;;;21.38;4.18;;;5.10;99.90;;;;;;5034432;28;20029;-56
2022/02/11 05:01:31;;;;;;;13.77;2.78;;;5.10;99.90;;;;;;5034525;28;20522;-55
2022/02/11 05:03:57;;;;;;;11.38;3.47;;;5.10;99.90;;;;;;5034698;28;20025;-55
2022/02/11 05:06:23;;;;;;;16.25;3.30;;;5.20;99.90;;;;;;5033588;28;20056;-55
2022/02/11 05:08:49;;;;;;;13.75;3.80;;;5.10;99.90;;;;;;5034565;28;20041;-55
2022/02/11 05:11:15;;;;;;;15.20;3.15;;;5.20;99.90;;;;;;5033559;28;20066;-55
2022/02/11 05:13:41;;;;;;;21.90;4.18;;;5.20;99.90;;;;;;5034022;28;20544;-55
2022/02/11 05:16:07;;;;;;;24.13;3.58;;;5.10;99.90;;;;;;5033839;28;20026;-55
2022/02/11 05:18:33;;;;;;;21.08;3.80;;;5.20;99.90;;;;;;5033836;28;20139;-55
2022/02/11 05:20:58;;;;;;;19.85;4.20;;;5.20;99.90;;;;;;5034103;28;20033;-56
2022/02/11 05:23:24;;;;;;;16.42;3.03;;;5.30;99.90;;;;;;5034301;28;20049;-56
2022/02/11 05:25:50;;;;;;;18.80;3.60;;;5.30;99.90;;;;;;5034226;28;20021;-55
2022/02/11 05:28:17;;;;;;;17.27;3.20;;;5.20;99.90;;;;;;5034247;28;20496;-55
2022/02/11 05:30:43;;;;;;;17.70;3.50;;;5.20;99.90;;;;;;5033977;28;20021;-55
2022/02/11 05:33:09;;;;;;;19.65;3.72;;;5.20;99.90;;;;;;5034103;28;20080;-55
2022/02/11 05:35:38;;;;;;;15.32;3.50;;;5.10;99.90;;;;;;5034136;28;20109;-55
2022/02/11 05:38:04;;;;;;;20.85;4.40;;;5.10;99.90;;;;;;5033919;28;20038;-55
2022/02/11 05:40:30;;;;;;;17.90;5.30;;;5.10;99.90;;;;;;5033178;28;20029;-55
2022/02/11 05:42:55;;;;;;;16.80;3.35;;;5.20;99.90;;;;;;5032422;28;20029;-55
2022/02/11 05:45:21;;;;;;;15.23;3.17;;;5.30;99.90;;;;;;5032747;28;20528;-56
2022/02/11 05:47:47;;;;;;;16.55;3.22;;;5.30;99.90;;;;;;5032652;28;20360;-56
2022/02/11 05:50:13;;;;;;;17.08;2.97;;;5.40;99.90;;;;;;5033367;28;20112;-55
2022/02/11 05:52:38;;;;;;;12.00;3.35;;;5.40;99.90;;;;;;5032945;28;20104;-55
2022/02/11 05:55:04;;;;;;;16.23;3.42;;;5.40;99.90;;;;;;5033739;28;20480;-55
2022/02/11 05:57:30;;;;;;;14.90;3.28;;;5.40;99.90;;;;;;5033227;28;20021;-55
2022/02/11 05:59:56;;;;;;;17.35;4.85;;;5.30;99.90;;;;;;5033525;28;20385;-55
2022/02/11 06:02:22;;;;;;;23.15;4.82;;;5.20;99.90;;;;;;5033167;28;20034;-55
2022/02/11 06:04:47;;;;;;;17.98;4.60;;;5.20;99.90;;;;;;5033279;28;20087;-55
2022/02/11 06:07:14;;;;;;;21.58;5.20;;;5.20;99.90;;;;;;5033462;28;20087;-56
2022/02/11 06:09:40;;;;;;;22.38;5.68;;;5.20;99.90;;;;;;5033018;28;20029;-55
2022/02/11 06:12:06;;;;;;;23.10;5.18;;;5.20;99.90;;;;;;5033252;28;20036;-55
2022/02/11 06:14:33;;;;;;;20.42;5.30;;;5.20;99.90;;;;;;5032463;28;20029;-56
2022/02/11 06:16:59;;;;;;;19.13;5.10;;;5.20;99.90;;;;;;5032310;28;20035;-56
2022/02/11 06:19:25;;;;;;;24.92;5.07;;;5.30;99.90;;;;;;5032770;28;20112;-55
2022/02/11 06:21:50;;;;;;;22.80;3.90;;;5.30;99.90;;;;;;5033663;28;20367;-55
2022/02/11 06:24:16;;;;;;;17.02;3.67;;;5.20;99.90;;;;;;5033611;28;20522;-55
2022/02/11 06:26:42;;;;;;;12.95;3.47;;;5.10;99.90;;;;;;5032666;28;20021;-55
2022/02/11 06:29:07;;;;;;;20.20;3.30;;;5.10;99.90;;;;;;5032862;28;20057;-56
2022/02/11 06:31:33;;;;;;;18.35;4.13;;;5.00;99.90;;;;;;5032481;28;20440;-55
2022/02/11 06:33:59;;;;;;;18.95;4.28;;;5.00;99.90;;;;;;5032490;28;20037;-55
2022/02/11 06:36:24;;;;;;;13.45;3.78;;;5.00;99.90;;;;;;5032920;28;20036;-55
2022/02/11 06:38:50;;;;;;;22.77;4.07;;;4.90;99.90;;;;;;5032542;28;20403;-55
2022/02/11 06:41:15;;;;;;;14.32;3.30;;;4.80;99.90;;;;;;5032481;28;20022;-55
2022/02/11 06:43:41;;;;;;;16.50;3.88;;;4.70;99.90;;;;;;5032665;28;20083;-55
2022/02/11 06:46:07;;;;;;;19.17;3.85;;;4.70;99.90;;;;;;5032456;28;20017;-55
2022/02/11 06:48:32;;;;;;;13.23;3.80;;;4.60;99.90;;;;;;5032708;28;20095;-55
2022/02/11 06:50:59;;;;;;;21.48;4.60;;;4.60;99.90;;;;;;5032336;28;20029;-55
2022/02/11 06:53:25;;;;;;;22.42;3.92;;;4.70;99.90;;;;;;5032670;28;20092;-55
2022/02/11 06:55:51;;;;;;;20.15;4.22;;;4.60;99.90;;;;;;5066198;28;20020;-55
2022/02/11 06:58:20;;;;;;;25.02;3.80;;;4.60;99.90;;;;;;5070984;28;20020;-54
2022/02/11 07:00:49;;;;;;;13.77;3.15;;;4.60;99.90;;;;;;5058605;28;20309;-55
2022/02/11 07:03:16;;;;;;;12.93;3.45;;;4.60;99.90;;;;;;5050718;28;20036;-55
2022/02/11 07:05:42;;;;;;;22.35;4.07;;;4.60;99.90;;;;;;5050194;28;20021;-55
2022/02/11 07:08:08;;;;;;;15.70;3.30;;;4.60;99.90;;;;;;5049493;28;20021;-55
2022/02/11 07:10:34;;;;;;;13.77;2.80;;;4.50;99.90;;;;;;5048459;28;20537;-55
2022/02/11 07:13:00;;;;;;;20.75;3.60;;;4.50;99.90;;;;;;5046330;28;20021;-55
2022/02/11 07:15:26;;;;;;;15.60;3.25;;;4.50;99.90;;;;;;5045657;28;20393;-54
2022/02/11 07:17:52;;;;;;;10.55;3.10;;;4.50;99.90;;;;;;5050340;28;20025;-55
2022/02/11 07:20:18;;;;;;;21.17;4.00;;;4.50;99.90;;;;;;5043884;28;20021;-54
2022/02/11 07:22:43;;;;;;;17.08;3.88;;;4.50;99.90;;;;;;5048624;28;20031;-54
2022/02/11 07:25:12;;;;;;;24.67;4.38;;;4.60;99.90;;;;;;5048736;28;20064;-55
2022/02/11 07:27:38;;;;;;;19.05;4.07;;;4.60;99.90;;;;;;5048769;28;20128;-55
2022/02/11 07:30:05;;;;;;;22.27;3.75;;;4.60;99.90;;;;;;5039941;28;20092;-55
2022/02/11 07:32:31;;;;;;;18.50;4.07;;;4.60;99.90;;;;;;5042792;28;20689;-55
2022/02/11 07:34:58;;;;;;;19.52;3.80;;;4.70;99.90;;;;;;5052403;28;20100;-55
2022/02/11 07:37:25;;;;;;;15.13;3.90;;;4.70;99.90;;;;;;5047693;28;20024;-55
2022/02/11 07:39:50;;;;;;;14.52;3.28;;;4.70;99.90;;;;;;5051225;28;20019;-55
2022/02/11 07:42:17;;;;;;;15.32;3.67;;;4.70;99.90;;;;;;5040784;28;20044;-55
2022/02/11 07:44:43;;;;;;;17.08;4.10;;;4.70;99.90;;;;;;5043474;28;20084;-55
2022/02/11 07:47:09;;;;;;;13.05;3.20;;;4.80;99.90;;;;;;5043601;28;20041;-54
2022/02/11 07:49:35;;;;;;;10.80;3.25;;;4.80;99.90;;;;;;5039342;28;20106;-54
2022/02/11 07:52:01;;;;;;;20.08;3.88;;;4.80;99.90;;;;;;5042982;28;20036;-54
2022/02/11 07:54:27;;;;;;;26.65;3.70;;;4.80;99.90;;;;;;5034038;28;20241;-55
2022/02/11 07:56:54;;;;;;;13.82;3.80;;;4.80;99.90;;;;;;5046927;28;20025;-55
2022/02/11 07:59:20;;;;;;;18.92;3.65;;;4.90;99.90;;;;;;5046675;28;20482;-55
2022/02/11 08:01:46;;;;;;;16.23;4.30;;;4.80;99.90;;;;;;5041133;28;20402;-55
2022/02/11 08:04:11;;;;;;;18.02;4.47;;;4.90;99.90;;;;;;5046035;28;20055;-55
2022/02/11 08:06:43;;;;;;;24.92;4.28;;;5.00;99.90;;;;;;5047773;28;20447;-55
2022/02/11 08:09:09;;;;;;;19.55;4.65;;;5.10;99.90;;;;;;5043555;28;20170;-55
2022/02/11 08:11:35;;;;;;;15.20;4.28;;;5.20;99.90;;;;;;5044510;28;20123;-55
2022/02/11 08:14:00;;;;;;;16.23;5.00;;;5.20;99.90;;;;;;5039021;28;20037;-55
2022/02/11 08:16:26;;;;;;;16.45;4.82;;;5.30;99.90;;;;;;5039896;28;21435;-55
2022/02/11 08:18:52;;;;;;;14.57;5.20;;;5.30;99.90;;;;;;5042842;28;20021;-55
2022/02/11 08:21:17;;;;;;;16.73;4.90;;;5.30;99.90;;;;;;5047131;28;20037;-55
2022/02/11 08:23:44;;;;;;;20.35;5.35;;;5.20;99.90;;;;;;5048366;28;20075;-55
2022/02/11 08:26:10;;;;;;;21.67;5.07;;;5.20;99.90;;;;;;5049593;28;20611;-53
2022/02/11 08:28:36;;;;;;;21.88;4.72;;;5.40;99.90;;;;;;5058199;28;20409;-53
2022/02/11 08:31:03;;;;;;;18.13;4.80;;;5.50;99.90;;;;;;5052535;28;20033;-54
2022/02/11 08:33:28;;;;;;;18.05;4.50;;;5.80;99.90;;;;;;5048557;28;20036;-54
2022/02/11 08:35:56;;;;;;;20.42;4.25;;;6.00;99.90;;;;;;5058396;28;20021;-53
2022/02/11 08:38:25;;;;;;;17.55;3.90;;;6.20;99.90;;;;;;5049553;28;20036;-54
2022/02/11 08:40:52;;;;;;;20.25;5.68;;;6.30;99.90;;;;;;5045961;28;20028;-53
2022/02/11 08:43:19;;;;;;;22.25;4.78;;;6.30;99.90;;;;;;5047117;28;20116;-53
2022/02/11 08:45:45;;;;;;;11.25;4.35;;;6.60;99.90;;;;;;5049513;28;20032;-53
2022/02/11 08:48:12;;;;;;;16.25;4.20;;;6.90;99.90;;;;;;5052037;28;20673;-53
2022/02/11 08:50:39;;;;;;;15.27;3.60;;;7.40;99.90;;;;;;5050577;28;20021;-54
2022/02/11 08:53:06;;;;;;;17.73;4.32;;;7.90;99.90;;;;;;5048185;28;20048;-54
2022/02/11 08:55:32;;;;;;;18.58;5.43;;;8.30;99.90;;;;;;5051099;28;20664;-53
2022/02/11 08:57:59;;;;;;;15.05;5.35;;;8.90;99.90;;;;;;5053286;28;20025;-53
2022/02/11 09:00:26;;;;;;;16.80;5.18;;;9.60;99.90;;;;;;5048389;28;20488;-53
2022/02/11 09:02:52;;;;;;;14.23;4.22;;;10.00;99.90;;;;;;5054071;28;20110;-53
2022/02/11 09:05:21;;;;;;;15.80;4.00;;;10.60;99.90;;;;;;5043867;28;20028;-53
2022/02/11 09:07:51;;;;;;;15.32;4.10;;;10.90;99.90;;;;;;5051603;28;20047;-54
2022/02/11 09:10:16;;;;;;;17.75;4.05;;;10.40;99.90;;;;;;5048752;28;20025;-54
2022/02/11 09:12:42;;;;;;;19.58;4.10;;;10.10;99.90;;;;;;5051864;28;20512;-54
2022/02/11 09:15:08;;;;;;;17.80;4.82;;;9.30;99.90;;;;;;5053305;28;20025;-54
2022/02/11 09:17:34;;;;;;;24.13;4.75;;;8.90;99.90;;;;;;5050845;28;20025;-54
2022/02/11 09:19:59;;;;;;;15.85;3.60;;;8.90;99.90;;;;;;5049829;28;20434;-54
2022/02/11 09:22:25;;;;;;;18.10;4.60;;;8.60;99.90;;;;;;5049275;28;20108;-54
2022/02/11 09:24:53;;;;;;;21.67;4.32;;;8.50;99.90;;;;;;5052950;28;20028;-54
2022/02/11 09:27:19;;;;;;;15.02;4.07;;;9.20;99.90;;;;;;5049452;28;20489;-54
2022/02/11 09:29:45;;;;;;;19.27;3.40;;;9.70;99.90;;;;;;5045919;28;20045;-54
2022/02/11 09:32:11;;;;;;;17.38;4.15;;;10.20;99.90;;;;;;5044283;28;20450;-54
2022/02/11 09:34:37;;;;;;;14.95;3.15;;;10.70;99.90;;;;;;5048115;28;20039;-54
2022/02/11 09:37:03;;;;;;;19.80;4.07;;;10.80;99.90;;;;;;5045884;28;20086;-54
2022/02/11 09:39:29;;;;;;;17.52;4.20;;;11.10;99.90;;;;;;5050873;28;20501;-54
2022/02/11 09:41:55;;;;;;;15.55;3.85;;;11.30;99.90;;;;;;5047198;28;20029;-54
2022/02/11 09:44:24;;;;;;;16.33;3.10;;;11.20;99.90;;;;;;5054129;28;20041;-54
2022/02/11 09:46:50;;;;;;;17.27;3.85;;;11.60;99.90;;;;;;5051467;28;20059;-54
2022/02/11 09:49:17;;;;;;;15.95;3.85;;;11.50;99.90;;;;;;5047543;28;20082;-54
2022/02/11 09:51:44;;;;;;;17.05;3.85;;;11.70;99.90;;;;;;5044063;28;20025;-54
2022/02/11 09:54:17;;;;;;;16.30;3.45;;;11.70;99.90;;;;;;5045367;28;20501;-54
2022/02/11 09:56:43;;;;;;;15.85;4.30;;;11.70;99.90;;;;;;5050107;28;20028;-54
2022/02/11 09:59:09;;;;;;;16.73;3.95;;;12.00;99.90;;;;;;5054823;28;20085;-54
2022/02/11 10:01:37;;;;;;;13.88;3.58;;;12.00;99.90;;;;;;5049263;28;20037;-53
2022/02/11 10:04:22;;;;;;;13.40;3.60;;;11.90;99.90;;;;;;5050950;28;20028;-54
2022/02/11 10:06:50;;;;;;;12.80;3.50;;;11.70;99.90;;;;;;5045108;28;20060;-54
2022/02/11 10:09:16;;;;;;;21.83;4.10;;;11.40;99.90;;;;;;5045687;28;20378;-54
2022/02/11 10:11:45;;;;;;;16.35;3.70;;;11.60;99.90;;;;;;5043857;28;20068;-54
2022/02/11 10:14:36;;;;;;;15.93;3.30;;;11.60;99.90;;;;;;5039816;28;20548;-54
2022/02/11 10:17:08;;;;;;;10.00;2.95;;;11.90;99.90;;;;;;5046392;28;20017;-54
2022/02/11 10:19:51;;;;;;;14.52;2.85;;;11.80;99.90;;;;;;5042384;28;20036;-54
2022/02/11 10:22:28;;;;;;;12.02;3.00;;;12.00;99.90;;;;;;5043026;28;20516;-53
2022/02/11 10:24:58;;;;;;;9.52;2.75;;;12.00;99.90;;;;;;5049369;28;20124;-54
2022/02/11 10:27:28;;;;;;;15.00;3.28;;;11.90;99.90;;;;;;5047126;28;20033;-54
2022/02/11 10:30:10;;;;;;;13.02;3.70;;;12.20;99.90;;;;;;5040807;28;20036;-54
2022/02/11 10:32:48;;;;;;;12.70;3.78;;;12.30;99.90;;;;;;5043764;28;20384;-54
2022/02/11 10:35:25;;;;;;;10.07;3.08;;;12.70;99.90;;;;;;5039785;28;20056;-54
2022/02/11 10:38:11;;;;;;;19.02;3.80;;;12.50;99.90;;;;;;5041049;28;20073;-54
2022/02/11 10:40:40;;;;;;;17.75;2.80;;;12.20;99.90;;;;;;5047719;28;20094;-54
2022/02/11 10:43:19;;;;;;;9.95;3.08;;;12.40;99.90;;;;;;5044237;28;20100;-54
2022/02/11 10:45:45;;;;;;;11.55;2.78;;;12.20;99.90;;;;;;5046255;28;20029;-54
2022/02/11 10:48:11;;;;;;;11.55;3.28;;;12.60;99.90;;;;;;5045035;28;20033;-53
2022/02/11 10:50:38;;;;;;;13.07;3.50;;;12.40;99.90;;;;;;5040810;28;20414;-54
2022/02/11 10:53:05;;;;;;;14.80;3.50;;;12.50;99.90;;;;;;5046108;28;20522;-54
2022/02/11 10:55:31;;;;;;;10.52;2.58;;;13.00;99.90;;;;;;5043433;28;20096;-54
2022/02/11 10:57:59;;;;;;;12.82;3.15;;;13.20;99.90;;;;;;5048189;28;20130;-54
2022/02/11 11:00:25;;;;;;;15.13;3.95;;;12.90;99.90;;;;;;5041442;28;20048;-54
2022/02/11 11:02:51;;;;;;;14.32;2.95;;;12.90;99.90;;;;;;5042128;28;20033;-54
2022/02/11 11:05:16;;;;;;;12.02;2.47;;;13.00;99.90;;;;;;5045947;28;20398;-54
2022/02/11 11:07:43;;;;;;;10.95;3.03;;;13.10;99.90;;;;;;5048298;28;20029;-54
2022/02/11 11:10:11;;;;;;;13.63;2.97;;;13.10;99.90;;;;;;5046863;28;20398;-54
2022/02/11 11:12:42;;;;;;;16.73;2.95;;;13.10;99.90;;;;;;5045882;28;20033;-54
2022/02/11 11:15:09;;;;;;;10.82;2.40;;;13.20;99.50;;;;;;5042921;28;20025;-54
2022/02/11 11:17:38;;;;;;;12.75;2.65;;;13.10;99.50;;;;;;5048017;28;20074;-54
2022/02/11 11:20:05;;;;;;;10.68;2.50;;;13.00;99.50;;;;;;5046538;28;20067;-54
2022/02/11 11:22:45;;;;;;;15.93;3.00;;;12.50;99.90;;;;;;5041851;28;20386;-54
2022/02/11 11:25:10;;;;;;;14.40;3.28;;;12.50;99.90;;;;;;5050633;28;20147;-54
2022/02/11 11:27:43;;;;;;;12.48;2.60;;;12.10;99.90;;;;;;5046946;28;20060;-54
2022/02/11 11:30:24;;;;;;;22.60;3.42;;;12.00;99.90;;;;;;5043588;28;20128;-56
2022/02/11 11:33:05;;;;;;;15.00;3.13;;;11.80;99.90;;;;;;5045292;28;20395;-57
2022/02/11 11:35:53;;;;;;;17.08;3.47;;;12.30;99.90;;;;;;5049490;28;20021;-56
2022/02/11 11:38:23;;;;;;;15.35;3.30;;;13.70;99.90;;;;;;5040579;28;20107;-57
2022/02/11 11:41:02;;;;;;;16.08;2.88;;;15.40;97.40;;;;;;5044505;28;20532;-56
2022/02/11 11:43:50;;;;;;;23.85;3.78;;;16.00;92.40;;;;;;5041571;28;20021;-56
2022/02/11 11:46:16;;;;;;;17.80;3.72;;;16.10;90.90;;;;;;5043761;28;20473;-57
2022/02/11 11:49:03;;;;;;;12.63;2.80;;;16.10;89.50;;;;;;5043033;28;20039;-56
2022/02/11 11:51:54;;;;;;;21.65;4.47;;;15.00;92.60;;;;;;5040843;28;20124;-57
2022/02/11 11:54:21;;;;;;;14.82;3.45;;;15.90;92.10;;;;;;5041598;28;20032;-56
2022/02/11 11:56:52;;;;;;;13.93;3.58;;;16.30;90.00;;;;;;5040799;28;20106;-56
2022/02/11 11:59:24;;;;;;;17.90;2.72;;;17.00;86.90;;;;;;5046577;28;20025;-57
2022/02/11 12:02:20;;;;;;;18.20;3.65;;;17.80;84.60;;;;;;5044859;28;20420;-57
2022/02/11 12:04:57;;;;;;;14.40;2.75;;;18.70;81.40;;;;;;5042509;28;20646;-58
2022/02/11 12:07:30;;;;;;;14.93;5.03;;;17.40;77.50;;;;;;5044548;28;20763;-57
2022/02/11 12:09:58;;;;;;;11.73;4.35;;;15.10;84.00;;;;;;5046103;28;20482;-58
2022/02/11 12:12:31;;;;;;;15.93;6.00;;;13.60;90.70;;;;;;5047988;28;20466;-57
2022/02/11 12:14:59;;;;;;;14.57;3.15;;;13.00;93.10;;;;;;5041241;28;20036;-57
2022/02/11 12:17:25;;;;;;;15.70;3.22;;;12.60;94.30;;;;;;5042511;28;20025;-57
2022/02/11 12:19:52;;;;;;;16.92;3.28;;;11.70;96.20;;;;;;5047683;28;20013;-57
2022/02/11 12:22:20;;;;;;;28.40;6.63;;;11.00;98.10;;;;;;5045456;28;20067;-57
2022/02/11 12:27:35;;;;;;;17.42;5.72;;;11.00;97.30;;;;;;5044136;28;20097;-57
2022/02/11 12:30:05;;;;;;;18.42;4.38;;;12.00;96.30;;;;;;5044045;28;20045;-57
2022/02/11 12:32:32;;;;;;;12.52;2.65;;;13.20;94.20;;;;;;5043122;28;20041;-57
2022/02/11 12:35:01;;;;;;;9.98;2.97;;;14.20;92.50;;;;;;5047324;28;20431;-56
2022/02/11 12:37:28;;;;;;;10.93;2.30;;;14.80;90.50;;;;;;5043887;28;20354;-56
2022/02/11 12:40:25;;;;;;;11.18;2.33;;;15.60;88.60;;;;;;5043081;28;20036;-56
2022/02/11 12:43:11;;;;;;;11.20;2.63;;;16.40;81.00;;;;;;5036811;28;20033;-56
2022/02/11 12:45:43;;;;;;;14.75;2.58;;;16.00;81.80;;;;;;5035526;28;20036;-57
2022/02/11 12:48:14;;;;;;;8.80;2.30;;;15.40;82.20;;;;;;5038118;28;20025;-57
2022/02/11 12:50:46;;;;;;;12.85;2.53;;;15.10;84.40;;;;;;5038998;28;20029;-56
2022/02/11 12:53:22;;;;;;;8.00;2.58;;;13.90;87.70;;;;;;5044713;28;20090;-56
2022/02/11 12:55:51;;;;;;;13.15;2.58;;;12.60;92.20;;;;;;5042034;28;20560;-56
2022/02/11 12:58:19;;;;;;;16.83;3.22;;;11.80;95.20;;;;;;5040147;28;20411;-56
2022/02/11 13:00:47;;;;;;;17.83;3.05;;;11.50;96.80;;;;;;5044522;28;20036;-56
2022/02/11 13:03:15;;;;;;;17.55;3.10;;;11.50;97.10;;;;;;5042603;28;20528;-56
2022/02/11 13:05:45;;;;;;;15.43;2.88;;;11.40;98.30;;;;;;5041580;28;21582;-56
2022/02/11 13:08:22;;;;;;;18.23;3.28;;;11.20;98.60;;;;;;5049393;28;20577;-56
2022/02/11 13:10:55;;;;;;;18.85;3.00;;;12.00;98.30;;;;;;5041502;28;20380;-57
2022/02/11 13:13:21;;;;;;;10.40;2.60;;;13.40;95.30;;;;;;5045727;28;20390;-57
2022/02/11 13:15:47;;;;;;;13.10;2.70;;;14.10;93.50;;;;;;5048249;28;20039;-56
2022/02/11 13:18:19;;;;;;;12.52;3.20;;;14.90;90.70;;;;;;5045458;28;20519;-56
2022/02/11 13:20:53;;;;;;;18.08;3.20;;;15.60;88.30;;;;;;5043775;28;20436;-57
2022/02/11 13:23:21;;;;;;;12.40;2.83;;;14.80;87.70;;;;;;5046059;28;20499;-57
2022/02/11 13:25:49;;;;;;;10.85;3.00;;;14.30;86.10;;;;;;5048475;28;20311;-57
2022/02/11 13:28:16;;;;;;;11.30;3.13;;;14.40;87.20;;;;;;5048272;28;20059;-57
2022/02/11 13:30:47;;;;;;;12.65;3.40;;;14.40;87.00;;;;;;5046590;28;20037;-57
2022/02/11 13:33:25;;;;;;;11.52;3.05;;;14.50;88.40;;;;;;5046933;28;20040;-57
2022/02/11 13:35:53;;;;;;;14.15;2.78;;;13.70;89.90;;;;;;5048835;28;20017;-57
2022/02/11 13:38:23;;;;;;;12.70;2.80;;;13.00;90.30;;;;;;5052367;28;20033;-57
2022/02/11 13:40:53;;;;;;;12.80;3.83;;;12.60;92.40;;;;;;5049672;28;20029;-57
2022/02/11 13:43:19;;;;;;;14.80;4.82;;;12.70;93.40;;;;;;5048956;28;20395;-57
2022/02/11 13:45:50;;;;;;;11.27;3.28;;;13.10;92.30;;;;;;5046876;28;20060;-57
2022/02/11 13:48:16;;;;;;;12.77;3.55;;;13.60;91.00;;;;;;5047860;28;20040;-57
2022/02/11 13:51:13;;;;;;;16.05;4.03;;;13.80;90.20;;;;;;5048634;28;20363;-57
2022/02/11 13:53:52;;;;;;;14.38;3.58;;;13.90;89.80;;;;;;5047702;28;20037;-57
2022/02/11 13:56:48;;;;;;;18.90;3.75;;;14.40;89.10;;;;;;5047690;28;20013;-57
2022/02/11 13:59:27;;;;;;;11.35;3.00;;;14.90;86.10;;;;;;5047731;28;20136;-57
2022/02/11 14:02:05;;;;;;;12.75;3.22;;;14.40;82.20;;;;;;5043872;28;20031;-57
2022/02/11 14:04:33;;;;;;;12.50;3.38;;;13.40;84.50;;;;;;5045820;28;20033;-57
2022/02/11 14:07:01;;;;;;;13.60;2.45;;;12.40;87.00;;;;;;5049085;28;20078;-57
2022/02/11 14:09:37;;;;;;;9.43;3.08;;;12.00;87.10;;;;;;5049135;28;20392;-57
2022/02/11 14:12:05;;;;;;;14.02;3.60;;;11.40;88.90;;;;;;5048163;28;20032;-57
2022/02/11 14:14:34;;;;;;;19.13;3.55;;;11.30;90.20;;;;;;5049110;28;20092;-57
2022/02/11 14:17:02;;;;;;;10.68;2.25;;;11.30;90.70;;;;;;5043943;28;20116;-56
2022/02/11 14:19:28;;;;;;;11.73;2.72;;;11.40;90.70;;;;;;5047611;28;20015;-56
2022/02/11 14:21:55;;;;;;;11.82;2.67;;;11.20;91.40;;;;;;5045932;28;20033;-56
2022/02/11 14:24:22;;;;;;;14.93;2.78;;;11.00;92.70;;;;;;5044528;28;20033;-56
2022/02/11 14:26:49;;;;;;;14.10;2.92;;;10.80;93.90;;;;;;5046697;28;20029;-56
2022/02/11 14:29:15;;;;;;;17.02;2.78;;;10.90;93.50;;;;;;5049355;28;20135;-56
2022/02/11 14:31:41;;;;;;;15.45;3.47;;;11.00;93.10;;;;;;5052181;28;20037;-56
2022/02/11 14:34:08;;;;;;;15.18;3.20;;;10.90;92.70;;;;;;5050533;28;20036;-57
2022/02/11 14:36:36;;;;;;;15.77;2.75;;;10.70;93.00;;;;;;5047947;28;20367;-57
2022/02/11 14:39:02;;;;;;;7.57;2.25;;;10.50;92.50;;;;;;5046950;28;20024;-57
2022/02/11 14:41:46;;;;;;;12.63;2.55;;;10.30;90.90;;;;;;5044958;28;20025;-57
2022/02/11 14:44:15;;;;;;;12.40;2.40;;;10.20;91.40;;;;;;5050102;28;20043;-57
2022/02/11 14:46:40;;;;;;;16.00;2.58;;;10.00;93.30;;;;;;5048185;28;20028;-57
2022/02/11 14:49:06;;;;;;;12.73;2.70;;;10.00;93.40;;;;;;5050614;28;20041;-57
2022/02/11 14:51:34;;;;;;;18.98;3.65;;;9.90;93.80;;;;;;5054504;28;20508;-57
2022/02/11 14:54:03;;;;;;;13.52;3.40;;;9.90;95.50;;;;;;5053954;28;20027;-57
2022/02/11 14:56:29;;;;;;;17.58;2.65;;;9.90;95.80;;;;;;5051741;28;20500;-57
2022/02/11 14:58:55;;;;;;;13.52;2.55;;;10.20;95.40;;;;;;5050105;28;20032;-57
2022/02/11 15:01:21;;;;;;;11.43;2.75;;;10.50;94.40;;;;;;5049735;28;20032;-57
2022/02/11 15:03:46;;;;;;;10.02;2.25;;;10.80;93.70;;;;;;5051253;28;20162;-57
2022/02/11 15:06:12;;;;;;;11.20;2.38;;;10.90;93.00;;;;;;5050484;28;20029;-57
2022/02/11 15:08:37;;;;;;;12.68;2.83;;;10.70;93.30;;;;;;5047502;28;20140;-57
2022/02/11 15:11:03;;;;;;;9.10;2.03;;;10.60;94.20;;;;;;5051163;28;20032;-57
2022/02/11 15:13:29;;;;;;;16.73;2.70;;;10.40;94.30;;;;;;5051657;28;20025;-57
2022/02/11 15:15:55;;;;;;;12.63;2.63;;;10.30;94.90;;;;;;5052717;28;20017;-57
2022/02/11 15:18:21;;;;;;;15.82;2.35;;;10.10;95.90;;;;;;5051543;28;20025;-57
2022/02/11 15:20:47;;;;;;;15.13;2.45;;;9.90;96.30;;;;;;5050770;28;20047;-57
2022/02/11 15:23:13;;;;;;;16.52;2.22;;;9.90;97.10;;;;;;5044670;28;20047;-57
2022/02/11 15:25:39;;;;;;;19.38;2.97;;;9.60;99.10;;;;;;5050365;28;20020;-57
2022/02/11 15:28:05;;;;;;;12.40;2.00;;;9.30;99.90;;;;;;5050143;28;20022;-57
2022/02/11 15:30:32;;;;;;;5.82;1.65;;;9.20;99.50;;;;;;5049568;28;20025;-57
2022/02/11 15:32:57;;;;;;;15.65;2.30;;;9.10;98.70;;;;;;5050244;28;20029;-57
2022/02/11 15:35:29;;;;;;;12.73;2.53;;;9.20;98.90;;;;;;5048922;28;20023;-57
2022/02/11 15:37:55;;;;;;;12.70;2.42;;;9.40;99.80;;;;;;5049016;28;20025;-57
2022/02/11 15:40:23;;;;;;;14.38;2.88;;;9.40;99.90;;;;;;5050931;28;20044;-57
2022/02/11 15:42:50;;;;;;;17.17;2.78;;;9.40;99.90;;;;;;5050157;28;20091;-57
2022/02/11 15:45:16;;;;;;;10.93;2.28;;;9.20;99.90;;;;;;5051123;28;20499;-57
2022/02/11 15:47:43;;;;;;;10.82;2.45;;;9.10;99.90;;;;;;5050979;28;20104;-57
2022/02/11 15:50:09;;;;;;;16.02;3.55;;;8.90;99.90;;;;;;5051314;28;20028;-57
2022/02/11 15:52:34;;;;;;;16.60;3.47;;;8.70;99.90;;;;;;5050384;28;20021;-57
2022/02/11 15:55:00;;;;;;;15.60;3.08;;;8.60;99.90;;;;;;5050591;28;20025;-57
2022/02/11 15:57:26;;;;;;;13.65;2.72;;;8.40;99.90;;;;;;5050438;28;20021;-56
2022/02/11 15:59:51;;;;;;;11.43;2.65;;;8.30;99.90;;;;;;5051026;28;20025;-57
2022/02/11 16:02:17;;;;;;;12.73;2.70;;;8.30;99.90;;;;;;5051334;28;20021;-57
2022/02/11 16:04:43;;;;;;;12.32;2.88;;;8.30;99.90;;;;;;5051553;28;20112;-57
2022/02/11 16:07:08;;;;;;;15.35;3.20;;;8.30;99.90;;;;;;5050934;28;20029;-57
2022/02/11 16:09:34;;;;;;;16.33;3.40;;;8.10;99.90;;;;;;5049942;28;20100;-57
2022/02/11 16:12:01;;;;;;;18.77;3.15;;;8.10;99.90;;;;;;5051194;28;20033;-57
2022/02/11 16:14:27;;;;;;;16.67;2.88;;;8.10;99.90;;;;;;5051062;28;20029;-57
2022/02/11 16:16:53;;;;;;;16.02;3.10;;;8.00;99.90;;;;;;5050927;28;20029;-57
2022/02/11 16:19:19;;;;;;;24.30;4.43;;;8.00;99.90;;;;;;5050782;28;20021;-57
2022/02/11 16:21:45;;;;;;;25.27;4.43;;;7.90;99.90;;;;;;5050300;28;20052;-56
2022/02/11 16:24:11;;;;;;;16.95;3.72;;;7.90;99.90;;;;;;5050984;28;20048;-57
2022/02/11 16:26:38;;;;;;;19.88;5.57;;;7.80;99.90;;;;;;5050276;28;20478;-56
2022/02/11 16:29:04;;;;;;;18.40;5.47;;;7.70;99.90;;;;;;5050458;28;20062;-56
2022/02/11 16:31:30;;;;;;;14.52;4.50;;;7.70;99.90;;;;;;5050926;28;20029;-56
2022/02/11 16:33:56;;;;;;;20.10;4.85;;;7.60;99.90;;;;;;5050789;28;20025;-56
2022/02/11 16:36:25;;;;;;;17.13;5.25;;;7.50;99.90;;;;;;5050132;28;20028;-56